createdAt,value
2024-05-09T00:00:29.590Z,101734.38
2024-05-09T00:04:16.433Z,101726.97
2024-05-09T00:07:42.301Z,101730.44
2024-05-09T00:11:08.374Z,101731.48
2024-05-09T00:14:36.321Z,101736.67
2024-05-09T00:18:07.289Z,101738.77
2024-05-09T00:21:33.479Z,101737.93
2024-05-09T00:24:59.748Z,101740.39
2024-05-09T00:28:25.739Z,101738.54
2024-05-09T00:31:51.218Z,101738.05
2024-05-09T00:35:19.344Z,101735.65
2024-05-09T00:38:45.667Z,101730.14
2024-05-09T00:42:11.102Z,101729.63
2024-05-09T00:45:37.414Z,101732.92
2024-05-09T00:49:03.210Z,101731.35
2024-05-09T00:52:29.299Z,101733.60
2024-05-09T00:55:55.472Z,101728.81
2024-05-09T00:59:21.515Z,101729.52
2024-05-09T01:02:47.378Z,101728.33
2024-05-09T01:06:14.116Z,101725.10
2024-05-09T01:09:39.740Z,101725.98
2024-05-09T01:13:05.451Z,101725.14
2024-05-09T01:16:31.500Z,101725.90
2024-05-09T01:19:59.953Z,101728.90
2024-05-09T01:23:25.620Z,101727.92
2024-05-09T01:26:51.430Z,101725.88
2024-05-09T01:30:21.246Z,101724.88
2024-05-09T01:33:48.684Z,101727.33
2024-05-09T01:37:14.136Z,101721.88
2024-05-09T01:40:40.579Z,101721.74
2024-05-09T01:44:05.622Z,101726.04
2024-05-09T01:47:31.596Z,101729.48
2024-05-09T01:50:57.691Z,101735.35
2024-05-09T01:54:23.475Z,101736.39
2024-05-09T01:57:48.982Z,101731.58
2024-05-09T02:01:16.168Z,101729.87
2024-05-09T02:04:41.776Z,101731.76
2024-05-09T02:08:13.073Z,101731.42
2024-05-09T02:11:43.635Z,101732.80
2024-05-09T02:15:10.404Z,101732.98
2024-05-09T02:18:36.208Z,101730.21
2024-05-09T02:22:02.071Z,101727.59
2024-05-09T02:25:27.846Z,101725.34
2024-05-09T02:28:53.540Z,101725.66
2024-05-09T02:32:19.294Z,101727.55
2024-05-09T02:35:45.396Z,101727.73
2024-05-09T02:39:10.791Z,101732.23
2024-05-09T02:42:36.616Z,101736.05
2024-05-09T02:46:05.520Z,101728.69
2024-05-09T02:49:31.222Z,101725.44
2024-05-09T02:52:57.099Z,101731.33
2024-05-09T02:56:22.632Z,101731.52
2024-05-09T02:59:48.319Z,101733.95
2024-05-09T03:03:15.635Z,101728.28
2024-05-09T03:06:43.500Z,101728.30
2024-05-09T03:10:18.263Z,101727.45
2024-05-09T03:13:47.797Z,101722.66
2024-05-09T03:17:12.996Z,101722.84
2024-05-09T03:20:39.157Z,101718.22
2024-05-09T03:24:04.697Z,101715.65
2024-05-09T03:27:30.687Z,101712.03
2024-05-09T03:30:56.298Z,101713.09
2024-05-09T03:34:22.050Z,101717.40
2024-05-09T03:37:49.508Z,101717.05
2024-05-09T03:41:15.222Z,101717.56
2024-05-09T03:44:41.174Z,101718.91
2024-05-09T03:48:07.256Z,101722.19
2024-05-09T03:51:32.582Z,101719.77
2024-05-09T03:54:58.515Z,101716.33
2024-05-09T03:58:26.549Z,101718.39
2024-05-09T04:01:56.656Z,101716.83
2024-05-09T04:05:25.954Z,101715.92
2024-05-09T04:08:58.210Z,101715.73
2024-05-09T04:12:24.743Z,101719.44
2024-05-09T04:15:50.614Z,101727.63
2024-05-09T04:19:16.210Z,101727.55
2024-05-09T04:22:41.826Z,101724.40
2024-05-09T04:26:08.829Z,101725.41
2024-05-09T04:29:37.533Z,101730.17
2024-05-09T04:33:03.713Z,101730.11
2024-05-09T04:36:29.533Z,101732.11
2024-05-09T04:39:56.229Z,101729.98
2024-05-09T04:43:22.292Z,101727.65
2024-05-09T04:46:51.562Z,101732.23
2024-05-09T04:50:24.703Z,101736.97
2024-05-09T04:53:55.546Z,101737.37
2024-05-09T04:57:20.751Z,101737.95
2024-05-09T05:00:45.996Z,101739.56
2024-05-09T05:04:11.589Z,101740.30
2024-05-09T05:07:37.179Z,101735.85
2024-05-09T05:11:02.298Z,101739.30
2024-05-09T05:14:28.246Z,101741.20
2024-05-09T05:17:53.630Z,101733.95
2024-05-09T05:21:19.083Z,101732.24
2024-05-09T05:24:44.596Z,101732.88
2024-05-09T05:28:10.457Z,101735.45
2024-05-09T05:31:36.031Z,101734.55
2024-05-09T05:35:01.810Z,101739.17
2024-05-09T05:38:28.570Z,101742.03
2024-05-09T05:41:54.347Z,101744.69
2024-05-09T05:45:19.673Z,101741.06
2024-05-09T05:48:44.893Z,101739.73
2024-05-09T05:52:13.188Z,101740.55
2024-05-09T05:55:40.235Z,101739.48
2024-05-09T05:59:05.775Z,101741.38
2024-05-09T06:02:31.323Z,101743.59
2024-05-09T06:05:56.790Z,101748.58
2024-05-09T06:09:22.478Z,101745.98
2024-05-09T06:12:48.274Z,101743.79
2024-05-09T06:16:13.467Z,101739.36
2024-05-09T06:19:38.711Z,101737.16
2024-05-09T06:23:03.984Z,101742.81
2024-05-09T06:26:29.217Z,101742.21
2024-05-09T06:29:55.014Z,101739.67
2024-05-09T06:33:20.594Z,101737.75
2024-05-09T06:36:45.914Z,101736.27
2024-05-09T06:40:17.353Z,101735.36
2024-05-09T06:43:42.888Z,101727.85
2024-05-09T06:47:09.694Z,101716.13
2024-05-09T06:50:38.009Z,101717.23
2024-05-09T06:54:08.433Z,101719.10
2024-05-09T06:57:34.034Z,101716.97
2024-05-09T07:00:59.719Z,101710.98
2024-05-09T07:04:25.847Z,101711.68
2024-05-09T07:07:51.518Z,101707.27
2024-05-09T07:11:17.474Z,101708.08
2024-05-09T07:14:43.611Z,101708.02
2024-05-09T07:18:15.463Z,101704.44
2024-05-09T07:21:41.140Z,101702.86
2024-05-09T07:25:06.738Z,101698.13
2024-05-09T07:28:31.916Z,101699.22
2024-05-09T07:31:56.797Z,101696.16
2024-05-09T07:35:22.841Z,101697.64
2024-05-09T07:38:47.945Z,101695.42
2024-05-09T07:42:13.103Z,101695.61
2024-05-09T07:45:48.585Z,101695.89
2024-05-09T07:53:34.693Z,101685.77
2024-05-09T07:56:33.143Z,101686.40
2024-05-09T07:59:58.382Z,101685.02
2024-05-09T08:03:24.143Z,101682.72
2024-05-09T08:06:53.521Z,101680.47
2024-05-09T08:10:21.982Z,101679.81
2024-05-09T08:13:50.316Z,101686.56
2024-05-09T08:17:20.453Z,101693.09
2024-05-09T08:20:49.915Z,101688.82
2024-05-09T08:24:15.127Z,101685.65
2024-05-09T08:27:41.878Z,101684.27
2024-05-09T08:31:07.792Z,101689.48
2024-05-09T08:34:34.302Z,101694.48
2024-05-09T08:38:00.147Z,101692.45
2024-05-09T08:41:25.740Z,101685.55
2024-05-09T08:44:54.130Z,101686.61
2024-05-09T08:48:26.358Z,101682.02
2024-05-09T08:51:58.779Z,101678.13
2024-05-09T08:55:29.013Z,101675.67
2024-05-09T08:59:00.946Z,101673.10
2024-05-09T09:02:30.184Z,101673.53
2024-05-09T09:06:02.781Z,101671.05
2024-05-09T09:09:29.991Z,101669.33
2024-05-09T09:13:04.148Z,101671.84
2024-05-09T09:16:36.520Z,101662.92
2024-05-09T09:20:03.120Z,101663.23
2024-05-09T09:23:30.958Z,101659.97
2024-05-09T09:27:00.659Z,101670.45
2024-05-09T09:30:37.297Z,101675.20
2024-05-09T09:34:12.028Z,101679.01
2024-05-09T09:37:40.063Z,101677.81
2024-05-09T09:41:10.947Z,101679.71
2024-05-09T09:44:42.132Z,101674.04
2024-05-09T09:48:16.060Z,101669.52
2024-05-09T09:51:44.623Z,101662.48
2024-05-09T09:55:12.621Z,101662.44
2024-05-09T09:58:41.172Z,101657.48
2024-05-09T10:02:07.179Z,101649.73
2024-05-09T10:05:34.362Z,101653.27
2024-05-09T10:09:01.114Z,101650.00
2024-05-09T10:12:26.679Z,101646.61
2024-05-09T10:15:54.666Z,101650.05
2024-05-09T10:19:27.940Z,101647.52
2024-05-09T10:22:56.483Z,101646.08
2024-05-09T10:26:33.664Z,101640.80
2024-05-09T10:30:06.759Z,101637.35
2024-05-09T10:33:42.053Z,101636.77
2024-05-09T10:37:08.113Z,101632.75
2024-05-09T10:40:33.907Z,101631.61
2024-05-09T10:44:01.617Z,101631.76
2024-05-09T10:47:31.321Z,101629.05
2024-05-09T10:50:56.703Z,101628.45
2024-05-09T10:54:22.629Z,101629.42
2024-05-09T10:57:48.196Z,101619.17
2024-05-09T11:01:14.174Z,101617.22
2024-05-09T11:04:41.120Z,101613.77
2024-05-09T11:08:07.673Z,101606.04
2024-05-09T11:11:33.338Z,101595.20
2024-05-09T11:14:59.219Z,101591.16
2024-05-09T11:18:26.763Z,101589.17
2024-05-09T11:21:54.728Z,101588.02
2024-05-09T11:25:20.590Z,101583.77
2024-05-09T11:28:47.864Z,101580.10
2024-05-09T11:32:16.425Z,101578.52
2024-05-09T11:35:41.717Z,101577.45
2024-05-09T11:39:07.445Z,101575.09
2024-05-09T11:42:32.711Z,101574.63
2024-05-09T11:45:59.212Z,101574.30
2024-05-09T11:49:27.087Z,101571.26
2024-05-09T11:52:59.111Z,101561.63
2024-05-09T11:56:24.711Z,101557.30
2024-05-09T11:59:51.209Z,101558.86
2024-05-09T12:03:20.570Z,101550.79
2024-05-09T12:06:54.147Z,101548.55
2024-05-09T12:10:32.494Z,101548.22
2024-05-09T12:14:00.461Z,101546.37
2024-05-09T12:17:26.667Z,101542.41
2024-05-09T12:20:52.276Z,101538.66
2024-05-09T12:24:18.538Z,101540.98
2024-05-09T12:27:44.747Z,101533.48
2024-05-09T12:31:10.638Z,101527.07
2024-05-09T12:34:36.394Z,101522.52
2024-05-09T12:38:01.863Z,101517.05
2024-05-09T12:41:27.579Z,101516.74
2024-05-09T12:44:55.673Z,101518.41
2024-05-09T12:48:21.368Z,101519.05
2024-05-09T12:51:47.438Z,101514.84
2024-05-09T12:55:18.980Z,101510.73
2024-05-09T12:58:47.981Z,101507.57
2024-05-09T13:02:15.489Z,101503.92
2024-05-09T13:05:46.441Z,101500.23
2024-05-09T13:09:12.789Z,101495.27
2024-05-09T13:12:40.939Z,101488.24
2024-05-09T13:16:10.267Z,101478.48
2024-05-09T13:19:38.805Z,101479.08
2024-05-09T13:23:06.651Z,101475.81
2024-05-09T13:26:33.094Z,101468.69
2024-05-09T13:29:58.562Z,101461.75
2024-05-09T13:33:23.748Z,101461.77
2024-05-09T13:36:49.146Z,101456.03
2024-05-09T13:40:23.202Z,101452.41
2024-05-09T13:43:53.643Z,101447.11
2024-05-09T13:47:19.300Z,101447.11
2024-05-09T13:50:48.463Z,101447.30
2024-05-09T13:54:18.597Z,101443.42
2024-05-09T13:57:55.636Z,101437.33
2024-05-09T14:01:23.093Z,101435.29
2024-05-09T14:04:51.060Z,101434.59
2024-05-09T14:08:19.851Z,101432.54
2024-05-09T14:11:52.521Z,101423.95
2024-05-09T14:15:19.018Z,101420.91
2024-05-09T14:18:45.301Z,101415.02
2024-05-09T14:22:16.799Z,101416.13
2024-05-09T14:25:45.518Z,101409.52
2024-05-09T14:29:14.601Z,101404.03
2024-05-09T14:32:40.840Z,101401.54
2024-05-09T14:36:07.196Z,101393.23
2024-05-09T14:39:32.950Z,101390.88
2024-05-09T14:43:01.041Z,101386.36
2024-05-09T14:46:28.880Z,101385.61
2024-05-09T14:50:00.172Z,101381.95
2024-05-09T14:53:29.217Z,101376.61
2024-05-09T14:56:55.312Z,101371.46
2024-05-09T15:00:28.663Z,101366.63
2024-05-09T15:03:58.383Z,101360.27
2024-05-09T15:07:24.129Z,101354.21
2024-05-09T15:10:50.902Z,101355.02
2024-05-09T15:14:16.707Z,101348.55
2024-05-09T15:17:42.764Z,101344.25
2024-05-09T15:21:08.365Z,101340.11
2024-05-09T15:24:33.933Z,101334.36
2024-05-09T15:28:00.138Z,101333.40
2024-05-09T15:31:26.382Z,101332.55
2024-05-09T15:34:54.698Z,101330.78
2024-05-09T15:38:21.837Z,101324.48
2024-05-09T15:41:47.455Z,101325.31
2024-05-09T15:45:12.445Z,101321.14
2024-05-09T15:48:38.719Z,101318.15
2024-05-09T15:52:05.741Z,101310.79
2024-05-09T15:55:33.464Z,101308.09
2024-05-09T15:58:59.787Z,101303.64
2024-05-09T16:02:25.441Z,101306.14
2024-05-09T16:05:51.813Z,101306.02
2024-05-09T16:09:17.778Z,101303.13
2024-05-09T16:12:45.651Z,101299.48
2024-05-09T16:16:11.212Z,101295.18
2024-05-09T16:19:36.676Z,101297.55
2024-05-09T16:23:01.843Z,101295.94
2024-05-09T16:26:26.966Z,101296.11
2024-05-09T16:29:52.115Z,101295.68
2024-05-09T16:33:19.078Z,101294.85
2024-05-09T16:36:44.665Z,101291.55
2024-05-09T16:40:21.774Z,101292.86
2024-05-09T16:43:55.093Z,101285.59
2024-05-09T16:47:20.429Z,101284.88
2024-05-09T16:50:45.822Z,101285.17
2024-05-09T16:54:11.393Z,101287.60
2024-05-09T16:57:36.727Z,101287.86
2024-05-09T17:01:02.298Z,101281.48
2024-05-09T17:04:28.127Z,101285.30
2024-05-09T17:07:53.775Z,101283.96
2024-05-09T17:11:19.538Z,101279.96
2024-05-09T17:14:45.098Z,101277.48
2024-05-09T17:18:11.122Z,101277.39
2024-05-09T17:21:38.467Z,101273.01
2024-05-09T17:25:04.086Z,101270.84
2024-05-09T17:28:29.776Z,101267.46
2024-05-09T17:31:55.730Z,101265.55
2024-05-09T17:35:22.014Z,101261.30
2024-05-09T17:38:47.791Z,101261.27
2024-05-09T17:42:13.071Z,101262.39
2024-05-09T17:45:38.513Z,101259.52
2024-05-09T17:49:05.112Z,101258.13
2024-05-09T17:52:30.936Z,101255.19
2024-05-09T17:55:56.543Z,101251.44
2024-05-09T17:59:21.953Z,101251.35
2024-05-09T18:02:47.036Z,101256.62
2024-05-09T18:06:12.363Z,101253.70
2024-05-09T18:09:37.785Z,101250.14
2024-05-09T18:13:03.381Z,101248.29
2024-05-09T18:16:29.259Z,101252.69
2024-05-09T18:19:54.146Z,101248.66
2024-05-09T18:23:19.416Z,101251.20
2024-05-09T18:26:45.433Z,101250.00
2024-05-09T18:30:24.065Z,101252.92
2024-05-09T18:33:54.072Z,101253.46
2024-05-09T18:37:19.816Z,101253.61
2024-05-09T18:40:48.380Z,101255.89
2024-05-09T18:44:14.836Z,101258.86
2024-05-09T18:47:40.373Z,101262.31
2024-05-09T18:51:06.699Z,101261.30
2024-05-09T18:54:32.493Z,101262.10
2024-05-09T18:57:58.238Z,101265.06
2024-05-09T19:01:23.275Z,101264.00
2024-05-09T19:04:49.623Z,101264.36
2024-05-09T19:08:15.908Z,101266.22
2024-05-09T19:11:41.610Z,101267.80
2024-05-09T19:15:08.436Z,101270.94
2024-05-09T19:18:33.706Z,101269.85
2024-05-09T19:22:00.036Z,101267.64
2024-05-09T19:25:25.303Z,101272.55
2024-05-09T19:28:50.323Z,101273.27
2024-05-09T19:32:15.636Z,101277.02
2024-05-09T19:35:40.652Z,101276.95
2024-05-09T19:39:06.567Z,101276.56
2024-05-09T19:42:32.284Z,101279.23
2024-05-09T19:45:57.870Z,101280.31
2024-05-09T19:49:23.343Z,101279.71
2024-05-09T19:52:48.936Z,101277.31
2024-05-09T19:56:14.156Z,101280.21
2024-05-09T19:59:39.417Z,101276.98
2024-05-09T20:03:04.922Z,101278.31
2024-05-09T20:06:31.383Z,101279.05
2024-05-09T20:09:57.079Z,101280.02
2024-05-09T20:13:23.528Z,101282.92
2024-05-09T20:16:48.908Z,101284.25
2024-05-09T20:20:24.554Z,101286.77
2024-05-09T20:23:58.246Z,101285.30
2024-05-09T20:27:24.008Z,101282.52
2024-05-09T20:30:49.347Z,101278.15
2024-05-09T20:34:14.776Z,101281.25
2024-05-09T20:37:39.796Z,101278.39
2024-05-09T20:41:04.962Z,101278.88
2024-05-09T20:44:30.223Z,101275.05
2024-05-09T20:47:55.811Z,101273.94
2024-05-09T20:51:21.248Z,101275.10
2024-05-09T20:54:46.482Z,101273.61
2024-05-09T20:58:12.199Z,101273.20
2024-05-09T21:01:37.851Z,101272.79
2024-05-09T21:05:03.813Z,101284.20
2024-05-09T21:08:29.617Z,101307.18
2024-05-09T21:11:55.155Z,101304.80
2024-05-09T21:15:20.428Z,101306.14
2024-05-09T21:18:47.249Z,101310.48
2024-05-09T21:22:14.166Z,101308.54
2024-05-09T21:25:39.076Z,101302.45
2024-05-09T21:29:04.855Z,101302.13
2024-05-09T21:32:31.219Z,101302.44
2024-05-09T21:35:56.894Z,101304.42
2024-05-09T21:39:25.207Z,101301.77
2024-05-09T21:42:50.313Z,101297.51
2024-05-09T21:46:15.989Z,101294.39
2024-05-09T21:49:44.383Z,101296.80
2024-05-09T21:53:09.700Z,101298.84
2024-05-09T21:56:34.589Z,101298.66
2024-05-09T21:59:59.715Z,101294.13
2024-05-09T22:03:25.522Z,101296.41
2024-05-09T22:06:51.164Z,101292.73
2024-05-09T22:10:25.630Z,101291.09
2024-05-09T22:13:55.420Z,101293.21
2024-05-09T22:17:20.811Z,101289.56
2024-05-09T22:20:46.888Z,101289.41
2024-05-09T22:24:12.319Z,101289.59
2024-05-09T22:27:37.391Z,101289.23
2024-05-09T22:31:03.004Z,101287.29
2024-05-09T22:34:28.623Z,101284.03
2024-05-09T22:37:53.865Z,101282.55
2024-05-09T22:41:19.480Z,101281.40
2024-05-09T22:44:44.528Z,101278.38
2024-05-09T22:48:10.807Z,101281.63
2024-05-09T22:51:36.433Z,101280.85
2024-05-09T22:55:01.501Z,101282.13
2024-05-09T22:58:26.658Z,101280.79
2024-05-09T23:01:51.669Z,101282.33
2024-05-09T23:05:17.407Z,101280.02
2024-05-09T23:08:42.761Z,101274.70
2024-05-09T23:12:08.858Z,101273.23
2024-05-09T23:15:34.155Z,101270.20
2024-05-09T23:18:59.940Z,101269.68
2024-05-09T23:22:25.592Z,101263.63
2024-05-09T23:25:51.228Z,101264.00
2024-05-09T23:29:16.706Z,101261.48
2024-05-09T23:32:41.909Z,101253.69
2024-05-09T23:36:08.002Z,101256.45
2024-05-09T23:39:33.517Z,101254.08
2024-05-09T23:42:58.838Z,101246.66
2024-05-09T23:46:24.233Z,101248.98
2024-05-09T23:49:49.717Z,101245.45
2024-05-09T23:53:14.876Z,101245.00
2024-05-09T23:56:40.281Z,101239.76
